createdAt,value
2019-04-21T00:00:58.685Z,15.18
2019-04-21T00:03:34.783Z,15.13
2019-04-21T00:06:15.660Z,15.07
2019-04-21T00:08:50.837Z,15.02
2019-04-21T00:11:24.931Z,15.01
2019-04-21T00:13:42.580Z,14.98
2019-04-21T00:16:07.600Z,14.93
2019-04-21T00:18:57.360Z,14.91
2019-04-21T00:21:29.152Z,14.91
2019-04-21T00:24:24.020Z,14.87
2019-04-21T00:27:18.751Z,14.87
2019-04-21T00:29:40.888Z,14.79
2019-04-21T00:32:03.037Z,14.72
2019-04-21T00:34:19.442Z,14.63
2019-04-21T00:37:00.119Z,14.58
2019-04-21T00:39:48.970Z,14.54
2019-04-21T00:42:09.883Z,14.54
2019-04-21T00:44:33.246Z,14.55
2019-04-21T00:47:13.960Z,14.52
2019-04-21T00:49:55.425Z,14.51
2019-04-21T00:52:43.668Z,14.44
2019-04-21T00:55:07.688Z,14.38
2019-04-21T00:57:32.588Z,14.30
2019-04-21T00:59:59.171Z,14.26
2019-04-21T01:02:39.937Z,14.22
2019-04-21T01:05:09.121Z,14.16
2019-04-21T01:07:35.990Z,14.10
2019-04-21T01:09:58.977Z,14.05
2019-04-21T01:12:37.250Z,14.02
2019-04-21T01:15:12.157Z,13.98
2019-04-21T01:17:40.648Z,13.99
2019-04-21T01:20:01.677Z,13.98
2019-04-21T01:22:21.669Z,13.98
2019-04-21T01:25:01.389Z,13.99
2019-04-21T01:27:47.875Z,13.94
2019-04-21T01:30:16.339Z,13.84
2019-04-21T01:32:51.186Z,13.80
2019-04-21T01:35:19.321Z,13.77
2019-04-21T01:37:49.670Z,13.72
2019-04-21T01:40:22.958Z,13.69
2019-04-21T01:42:51.407Z,13.60
2019-04-21T01:45:22.486Z,13.60
2019-04-21T01:47:51.099Z,13.52
2019-04-21T01:50:25.483Z,13.50
2019-04-21T01:53:02.374Z,13.44
2019-04-21T01:55:48.545Z,13.37
2019-04-21T01:58:15.443Z,13.32
2019-04-21T02:00:51.831Z,13.22
2019-04-21T02:06:04.896Z,13.15
2019-04-21T02:08:27.521Z,13.10
2019-04-21T02:11:07.527Z,13.06
2019-04-21T02:13:43.893Z,13.01
2019-04-21T02:16:06.491Z,12.97
2019-04-21T02:18:33.682Z,12.95
2019-04-21T02:20:52.828Z,12.87
2019-04-21T02:23:46.505Z,12.81
2019-04-21T02:26:13.591Z,12.77
2019-04-21T02:29:13.181Z,12.76
2019-04-21T02:31:39.604Z,12.74
2019-04-21T02:34:00.529Z,12.71
2019-04-21T02:41:30.885Z,12.61
2019-04-21T02:46:38.543Z,12.56
2019-04-21T02:49:04.263Z,12.56
2019-04-21T02:51:36.983Z,12.54
2019-04-21T02:54:40.574Z,12.52
2019-04-21T02:59:17.324Z,12.47
2019-04-21T03:01:49.006Z,12.43
2019-04-21T03:04:18.580Z,12.37
2019-04-21T03:07:14.828Z,12.32
2019-04-21T03:09:35.803Z,12.29
2019-04-21T03:12:22.540Z,12.21
2019-04-21T03:14:56.097Z,12.24
2019-04-21T03:17:26.719Z,12.18
2019-04-21T03:19:55.708Z,12.11
2019-04-21T03:22:22.572Z,12.05
2019-04-21T03:30:00.330Z,11.91
2019-04-21T03:37:37.198Z,11.72
2019-04-21T03:39:59.853Z,11.72
2019-04-21T03:42:33.835Z,11.73
2019-04-21T03:45:06.984Z,11.73
2019-04-21T03:47:32.520Z,11.73
2019-04-21T03:50:23.882Z,11.71
2019-04-21T03:52:48.171Z,11.71
2019-04-21T03:58:26.087Z,11.66
2019-04-21T04:01:00.615Z,11.64
2019-04-21T04:09:14.321Z,11.70
2019-04-21T04:11:31.603Z,11.72
2019-04-21T04:19:09.421Z,11.73
2019-04-21T04:24:13.331Z,11.72
2019-04-21T04:26:33.511Z,11.72
2019-04-21T04:29:05.934Z,11.73
2019-04-21T04:36:46.999Z,11.79
2019-04-21T04:39:42.862Z,11.85
2019-04-21T04:42:14.051Z,11.87
2019-04-21T04:47:11.458Z,11.97
2019-04-21T04:49:46.651Z,12.02
2019-04-21T04:57:25.981Z,12.22
2019-04-21T04:59:49.507Z,12.29
2019-04-21T05:09:59.537Z,12.57
2019-04-21T05:12:17.499Z,12.64
2019-04-21T05:14:53.376Z,12.70
2019-04-21T05:17:31.147Z,12.75
2019-04-21T05:20:03.556Z,12.88
2019-04-21T05:22:21.940Z,12.93
2019-04-21T05:24:47.613Z,13.04
2019-04-21T05:27:25.586Z,13.17
2019-04-21T05:30:07.230Z,13.26
2019-04-21T05:32:45.239Z,13.35
2019-04-21T05:35:16.873Z,13.41
2019-04-21T05:38:05.827Z,13.53
2019-04-21T05:40:31.814Z,13.59
2019-04-21T05:43:09.214Z,13.72
2019-04-21T05:45:41.168Z,13.83
2019-04-21T05:50:58.929Z,14.08
2019-04-21T05:53:37.381Z,14.24
2019-04-21T05:56:07.075Z,14.40
2019-04-21T05:58:39.162Z,14.51
2019-04-21T06:01:16.624Z,14.66
2019-04-21T06:03:47.552Z,14.79
2019-04-21T06:08:44.694Z,15.12
2019-04-21T06:11:19.149Z,15.24
2019-04-21T06:16:27.822Z,15.49
2019-04-21T06:18:53.059Z,15.62
2019-04-21T06:21:21.731Z,15.78
2019-04-21T06:23:54.885Z,15.96
2019-04-21T06:29:13.478Z,16.20
2019-04-21T06:31:57.826Z,16.29
2019-04-21T06:33:58.559Z,16.35
2019-04-21T06:36:42.275Z,16.50
2019-04-21T06:39:24.209Z,16.60
2019-04-21T06:42:02.780Z,16.72
2019-04-21T06:44:16.767Z,16.83
2019-04-21T06:46:45.988Z,17.01
2019-04-21T06:49:16.169Z,17.22
2019-04-21T06:51:58.311Z,17.45
2019-04-21T06:54:23.468Z,17.75
2019-04-21T06:56:51.537Z,18.05
2019-04-21T06:59:28.077Z,18.28
2019-04-21T07:02:13.462Z,18.53
2019-04-21T07:04:31.759Z,18.79
2019-04-21T07:06:56.343Z,19.05
2019-04-21T07:09:31.317Z,19.27
2019-04-21T07:11:59.710Z,19.55
2019-04-21T07:14:32.010Z,19.84
2019-04-21T07:17:15.935Z,20.12
2019-04-21T07:19:46.163Z,20.29
2019-04-21T07:22:12.719Z,20.48
2019-04-21T07:24:58.714Z,20.67
2019-04-21T07:27:16.179Z,20.87
2019-04-21T07:29:47.558Z,21.11
2019-04-21T07:32:20.979Z,21.16
2019-04-21T07:34:46.152Z,21.21
2019-04-21T07:37:11.580Z,21.38
2019-04-21T07:39:43.928Z,21.48
2019-04-21T07:42:16.366Z,21.73
2019-04-21T07:44:40.889Z,21.97
2019-04-21T07:47:25.334Z,22.23
2019-04-21T07:52:39.448Z,22.79
2019-04-21T07:57:36.709Z,24.34
2019-04-21T08:02:40.681Z,25.72
2019-04-21T08:07:55.927Z,26.79
2019-04-21T08:10:15.699Z,27.26
2019-04-21T08:12:50.667Z,27.83
2019-04-21T08:15:27.597Z,28.57
2019-04-21T08:17:47.255Z,29.02
2019-04-21T08:20:19.896Z,29.69
2019-04-21T08:25:27.234Z,30.48
2019-04-21T08:28:01.430Z,31.21
2019-04-21T08:30:30.345Z,32.00
2019-04-21T08:33:14.361Z,32.48
2019-04-21T08:35:53.013Z,32.56
2019-04-21T08:38:08.829Z,33.00
2019-04-21T08:43:08.851Z,34.31
2019-04-21T08:45:41.455Z,34.74
2019-04-21T08:48:13.572Z,35.77
2019-04-21T08:50:47.030Z,36.53
2019-04-21T08:53:41.130Z,36.66
2019-04-21T09:01:02.397Z,36.83
2019-04-21T09:03:44.811Z,37.66
2019-04-21T09:06:27.368Z,38.05
2019-04-21T09:08:46.095Z,38.73
2019-04-21T09:11:17.681Z,39.40
2019-04-21T09:13:52.353Z,39.99
2019-04-21T09:16:18.845Z,40.44
2019-04-21T09:18:48.705Z,39.62
2019-04-21T09:21:29.877Z,39.93
2019-04-21T09:23:56.345Z,40.41
2019-04-21T09:26:25.221Z,40.93
2019-04-21T09:28:56.332Z,41.37
2019-04-21T09:31:12.136Z,41.19
2019-04-21T09:33:47.163Z,40.87
2019-04-21T09:36:18.046Z,41.68
2019-04-21T09:38:54.918Z,42.32
2019-04-21T09:41:18.966Z,42.42
2019-04-21T09:43:52.016Z,42.62
2019-04-21T09:46:18.567Z,42.37
2019-04-21T09:48:56.797Z,42.46
2019-04-21T09:51:20.079Z,42.49
2019-04-21T09:53:58.307Z,43.09
2019-04-21T09:56:31.553Z,43.98
2019-04-21T09:59:05.367Z,44.72
2019-04-21T10:01:29.910Z,45.62
2019-04-21T10:04:00.068Z,45.73
2019-04-21T10:06:28.232Z,45.44
2019-04-21T10:09:04.013Z,46.02
2019-04-21T10:11:29.424Z,46.64
2019-04-21T10:13:59.012Z,47.12
2019-04-21T10:16:42.856Z,47.55
2019-04-21T10:19:13.215Z,47.55
2019-04-21T10:21:44.382Z,47.75
2019-04-21T10:24:13.997Z,47.52
2019-04-21T10:26:43.588Z,46.72
2019-04-21T10:29:21.802Z,47.60
2019-04-21T10:31:44.994Z,47.76
2019-04-21T10:34:14.697Z,47.86
2019-04-21T10:36:44.891Z,49.44
2019-04-21T10:39:15.712Z,49.25
2019-04-21T10:41:45.854Z,49.85
2019-04-21T10:44:16.942Z,50.33
2019-04-21T10:46:48.661Z,50.74
2019-04-21T10:49:18.981Z,51.14
2019-04-21T10:51:48.983Z,50.80
2019-04-21T10:54:19.997Z,52.09
2019-04-21T10:56:50.828Z,52.20
2019-04-21T10:59:20.652Z,52.03
2019-04-21T11:01:50.475Z,52.15
2019-04-21T11:04:32.406Z,52.39
2019-04-21T11:07:07.044Z,52.60
2019-04-21T11:09:29.832Z,53.13
2019-04-21T11:11:59.970Z,53.35
2019-04-21T11:14:29.646Z,53.12
2019-04-21T11:17:00.524Z,53.02
2019-04-21T11:19:32.681Z,53.14
2019-04-21T11:22:02.980Z,54.04
2019-04-21T11:24:33.260Z,54.93
2019-04-21T11:27:04.516Z,54.74
2019-04-21T11:29:35.066Z,54.85
2019-04-21T11:32:05.381Z,54.43
2019-04-21T11:34:35.071Z,54.88
2019-04-21T11:37:06.193Z,55.48
2019-04-21T11:39:45.842Z,56.20
2019-04-21T11:42:10.051Z,55.89
2019-04-21T11:44:41.788Z,56.20
2019-04-21T11:47:14.293Z,56.31
2019-04-21T11:49:45.206Z,53.95
2019-04-21T11:52:14.914Z,53.65
2019-04-21T11:54:44.667Z,53.11
2019-04-21T11:57:22.286Z,54.45
2019-04-21T11:59:45.877Z,55.72
2019-04-21T12:02:15.511Z,54.89
2019-04-21T12:04:45.463Z,54.34
2019-04-21T12:07:15.457Z,54.59
2019-04-21T12:09:45.718Z,55.06
2019-04-21T12:12:15.435Z,55.35
2019-04-21T12:14:46.549Z,55.21
2019-04-21T12:17:16.396Z,55.48
2019-04-21T12:19:46.182Z,56.18
2019-04-21T12:22:21.270Z,56.96
2019-04-21T12:24:47.453Z,56.69
2019-04-21T12:27:18.158Z,54.78
2019-04-21T12:29:47.998Z,54.52
2019-04-21T12:32:33.927Z,55.14
2019-04-21T12:35:04.052Z,55.11
2019-04-21T12:37:35.001Z,56.85
2019-04-21T12:40:06.433Z,56.95
2019-04-21T12:42:38.729Z,57.68
2019-04-21T12:45:10.387Z,57.06
2019-04-21T12:47:40.065Z,57.02
2019-04-21T12:50:10.992Z,57.83
2019-04-21T12:52:41.966Z,57.65
2019-04-21T12:55:11.740Z,57.93
2019-04-21T12:57:41.614Z,57.73
2019-04-21T13:00:15.108Z,58.25
2019-04-21T13:02:45.578Z,58.14
2019-04-21T13:05:15.816Z,56.49
2019-04-21T13:07:45.698Z,56.27
2019-04-21T13:10:18.042Z,57.24
2019-04-21T13:12:48.029Z,58.42
2019-04-21T13:15:18.151Z,58.63
2019-04-21T13:17:47.737Z,58.82
2019-04-21T13:20:19.140Z,58.10
2019-04-21T13:22:50.291Z,56.84
2019-04-21T13:25:20.185Z,56.39
2019-04-21T13:27:49.766Z,56.70
2019-04-21T13:30:20.304Z,57.36
2019-04-21T13:32:51.272Z,57.55
2019-04-21T13:35:21.290Z,56.92
2019-04-21T13:37:52.284Z,56.28
2019-04-21T13:40:59.934Z,56.30
2019-04-21T13:43:14.833Z,56.43
2019-04-21T13:45:45.819Z,56.16
2019-04-21T13:48:16.818Z,54.53
2019-04-21T13:50:47.070Z,54.27
2019-04-21T13:53:16.949Z,55.38
2019-04-21T13:55:46.742Z,55.89
2019-04-21T13:58:16.856Z,54.88
2019-04-21T14:00:47.680Z,54.49
2019-04-21T14:03:20.937Z,54.50
2019-04-21T14:05:48.794Z,54.40
2019-04-21T14:08:18.894Z,54.79
2019-04-21T14:10:49.351Z,56.06
2019-04-21T14:13:20.350Z,56.75
2019-04-21T14:15:51.695Z,55.90
2019-04-21T14:18:22.546Z,54.93
2019-04-21T14:20:53.393Z,54.25
2019-04-21T14:23:32.226Z,53.14
2019-04-21T14:25:55.505Z,53.60
2019-04-21T14:28:26.062Z,53.65
2019-04-21T14:30:56.514Z,54.32
2019-04-21T14:33:26.090Z,54.68
2019-04-21T14:35:56.861Z,54.58
2019-04-21T14:38:26.841Z,54.98
2019-04-21T14:40:56.625Z,54.70
2019-04-21T14:43:26.252Z,53.48
2019-04-21T14:45:58.978Z,50.96
2019-04-21T14:48:29.564Z,46.03
2019-04-21T14:51:04.512Z,41.52
2019-04-21T14:53:51.998Z,38.09
2019-04-21T14:56:21.627Z,35.65
2019-04-21T14:58:51.445Z,33.41
2019-04-21T15:01:21.961Z,31.94
2019-04-21T15:03:52.021Z,30.93
2019-04-21T15:06:21.641Z,30.04
2019-04-21T15:08:51.229Z,29.42
2019-04-21T15:11:22.147Z,29.00
2019-04-21T15:13:51.827Z,28.67
2019-04-21T15:16:22.870Z,28.40
2019-04-21T15:18:52.829Z,28.05
2019-04-21T15:21:23.575Z,27.70
2019-04-21T15:23:54.114Z,27.51
2019-04-21T15:26:24.171Z,27.29
2019-04-21T15:28:54.958Z,27.10
2019-04-21T15:31:30.707Z,26.96
2019-04-21T15:33:57.090Z,26.88
2019-04-21T15:36:27.204Z,26.85
2019-04-21T15:38:58.012Z,26.83
2019-04-21T15:41:27.651Z,26.59
2019-04-21T15:43:59.629Z,26.38
2019-04-21T15:46:30.568Z,26.28
2019-04-21T15:49:00.555Z,26.22
2019-04-21T15:51:31.551Z,26.14
2019-04-21T15:54:02.647Z,26.07
2019-04-21T15:56:38.426Z,26.00
2019-04-21T15:59:18.781Z,25.95
2019-04-21T16:01:52.926Z,25.80
2019-04-21T16:04:23.045Z,25.70
2019-04-21T16:06:53.464Z,25.64
2019-04-21T16:09:25.880Z,25.59
2019-04-21T16:11:55.676Z,25.50
2019-04-21T16:14:26.880Z,25.39
2019-04-21T16:16:57.098Z,25.29
2019-04-21T16:19:27.170Z,25.18
2019-04-21T16:21:56.951Z,25.06
2019-04-21T16:24:27.359Z,24.98
2019-04-21T16:27:01.308Z,24.92
2019-04-21T16:29:29.249Z,24.82
2019-04-21T16:31:59.643Z,24.76
2019-04-21T16:34:41.360Z,24.68
2019-04-21T16:37:01.518Z,24.56
2019-04-21T16:39:31.722Z,24.51
2019-04-21T16:42:02.532Z,24.42
2019-04-21T16:44:32.311Z,24.32
2019-04-21T16:47:03.334Z,24.26
2019-04-21T16:49:33.723Z,24.16
2019-04-21T16:52:18.187Z,24.07
2019-04-21T16:54:49.803Z,24.02
2019-04-21T16:57:21.715Z,23.93
2019-04-21T16:59:53.039Z,23.83
2019-04-21T17:02:24.817Z,23.70
2019-04-21T17:04:54.412Z,23.60
2019-04-21T17:07:24.143Z,23.52
2019-04-21T17:09:54.878Z,23.42
2019-04-21T17:12:26.791Z,23.32
2019-04-21T17:15:12.279Z,23.21
2019-04-21T17:17:50.872Z,23.16
2019-04-21T17:20:13.578Z,23.18
2019-04-21T17:22:31.412Z,23.12
2019-04-21T17:25:02.629Z,23.00
2019-04-21T17:27:33.392Z,22.94
2019-04-21T17:30:04.338Z,22.85
2019-04-21T17:32:38.706Z,22.86
2019-04-21T17:35:08.083Z,22.82
2019-04-21T17:37:38.341Z,22.76
2019-04-21T17:40:09.587Z,22.65
2019-04-21T17:42:46.543Z,22.54
2019-04-21T17:45:10.972Z,22.39
2019-04-21T17:47:49.917Z,22.30
2019-04-21T17:50:19.593Z,22.28
2019-04-21T17:53:12.637Z,22.22
2019-04-21T17:56:05.018Z,22.14
2019-04-21T17:58:33.857Z,22.07
2019-04-21T18:01:22.509Z,21.96
2019-04-21T18:03:58.821Z,21.86
2019-04-21T18:06:20.932Z,21.76
2019-04-21T18:08:55.198Z,21.65
2019-04-21T18:13:37.648Z,21.48
2019-04-21T18:16:20.213Z,21.28
2019-04-21T18:18:39.090Z,21.19
2019-04-21T18:21:10.367Z,21.08
2019-04-21T18:24:00.713Z,21.04
2019-04-21T18:26:35.455Z,21.00
2019-04-21T18:28:55.718Z,20.95
2019-04-21T18:31:27.067Z,20.82
2019-04-21T18:34:02.308Z,20.70
2019-04-21T18:36:43.276Z,20.63
2019-04-21T18:39:34.213Z,20.55
2019-04-21T18:42:05.053Z,20.50
2019-04-21T18:44:53.765Z,20.48
2019-04-21T18:47:16.374Z,20.38
2019-04-21T18:49:42.696Z,20.26
2019-04-21T18:52:22.238Z,20.20
2019-04-21T18:55:00.446Z,20.09
2019-04-21T18:57:26.514Z,20.02
2019-04-21T18:59:49.191Z,19.93
2019-04-21T19:02:22.136Z,19.83
2019-04-21T19:04:53.637Z,19.74
2019-04-21T19:07:37.669Z,19.72
2019-04-21T19:10:26.867Z,19.71
2019-04-21T19:13:09.215Z,19.69
2019-04-21T19:15:12.321Z,19.65
2019-04-21T19:20:25.703Z,19.54
2019-04-21T19:22:48.656Z,19.53
2019-04-21T19:25:39.114Z,19.52
2019-04-21T19:27:48.842Z,19.50
2019-04-21T19:30:30.062Z,19.47
2019-04-21T19:32:54.567Z,19.42
2019-04-21T19:35:11.126Z,19.39
2019-04-21T19:37:49.657Z,19.37
2019-04-21T19:40:37.620Z,19.33
2019-04-21T19:42:57.962Z,19.26
2019-04-21T19:45:34.248Z,19.19
2019-04-21T19:48:09.447Z,19.11
2019-04-21T19:50:42.478Z,19.04
2019-04-21T19:53:03.418Z,18.96
2019-04-21T19:55:24.408Z,18.94
2019-04-21T19:57:54.785Z,18.93
2019-04-21T20:00:26.472Z,18.89
2019-04-21T20:02:56.606Z,18.81
2019-04-21T20:05:36.146Z,18.76
2019-04-21T20:08:11.311Z,18.70
2019-04-21T20:10:48.576Z,18.61
2019-04-21T20:13:26.236Z,18.57
2019-04-21T20:15:52.048Z,18.55
2019-04-21T20:18:16.525Z,18.45
2019-04-21T20:20:35.268Z,18.39
2019-04-21T20:23:08.909Z,18.35
2019-04-21T20:25:43.742Z,18.26
2019-04-21T20:28:15.618Z,18.18
2019-04-21T20:30:55.781Z,18.14
2019-04-21T20:36:07.911Z,17.99
2019-04-21T20:38:24.806Z,17.96
2019-04-21T20:40:56.657Z,17.97
2019-04-21T20:43:36.579Z,17.90
2019-04-21T20:46:02.392Z,17.85
2019-04-21T20:48:34.481Z,17.78
2019-04-21T20:51:06.402Z,17.71
2019-04-21T20:53:36.158Z,17.69
2019-04-21T20:56:02.405Z,17.68
2019-04-21T20:58:40.847Z,17.67
2019-04-21T21:01:25.711Z,17.65
2019-04-21T21:03:44.347Z,17.61
2019-04-21T21:06:09.964Z,17.56
2019-04-21T21:08:47.697Z,17.52
2019-04-21T21:11:20.902Z,17.51
2019-04-21T21:13:51.010Z,17.49
2019-04-21T21:16:29.615Z,17.46
2019-04-21T21:19:06.937Z,17.42
2019-04-21T21:21:20.659Z,17.35
2019-04-21T21:23:54.733Z,17.31
2019-04-21T21:26:29.294Z,17.25
2019-04-21T21:28:53.987Z,17.24
2019-04-21T21:31:33.222Z,17.20
2019-04-21T21:34:02.079Z,17.22
2019-04-21T21:36:33.849Z,17.16
2019-04-21T21:39:08.209Z,17.09
2019-04-21T21:41:25.800Z,17.05
2019-04-21T21:43:58.120Z,16.98
2019-04-21T21:46:35.538Z,16.95
2019-04-21T21:49:01.996Z,16.92
2019-04-21T21:51:38.419Z,16.87
2019-04-21T21:53:54.711Z,16.84
2019-04-21T21:56:24.784Z,16.84
2019-04-21T21:58:55.250Z,16.83
2019-04-21T22:01:35.684Z,16.76
2019-04-21T22:04:04.921Z,16.71
2019-04-21T22:06:40.995Z,16.66
2019-04-21T22:09:00.788Z,16.59
2019-04-21T22:11:31.787Z,16.60
2019-04-21T22:14:06.248Z,16.61
2019-04-21T22:16:45.422Z,16.61
2019-04-21T22:19:18.881Z,16.60
2019-04-21T22:21:53.641Z,16.54
2019-04-21T22:24:20.360Z,16.47
2019-04-21T22:26:39.018Z,16.36
2019-04-21T22:29:09.720Z,16.27
2019-04-21T22:31:41.542Z,16.20
2019-04-21T22:34:14.058Z,16.18
2019-04-21T22:36:52.764Z,16.13
2019-04-21T22:39:36.498Z,16.10
2019-04-21T22:41:48.480Z,16.05
2019-04-21T22:44:18.877Z,16.01
2019-04-21T22:46:58.146Z,15.97
2019-04-21T22:49:21.925Z,15.95
2019-04-21T22:51:53.954Z,15.88
2019-04-21T22:54:31.423Z,15.84
2019-04-21T22:57:02.592Z,15.83
2019-04-21T22:59:28.660Z,15.83
2019-04-21T23:01:59.443Z,15.76
2019-04-21T23:04:34.183Z,15.72
2019-04-21T23:07:07.033Z,15.65
2019-04-21T23:09:33.026Z,15.60
2019-04-21T23:12:03.264Z,15.58
2019-04-21T23:14:46.807Z,15.54
2019-04-21T23:17:28.155Z,15.49
2019-04-21T23:20:00.023Z,15.45
2019-04-21T23:22:29.520Z,15.38
2019-04-21T23:25:03.049Z,15.45
2019-04-21T23:27:24.048Z,15.42
2019-04-21T23:30:09.865Z,15.37
2019-04-21T23:32:29.169Z,15.35
2019-04-21T23:34:45.939Z,15.33
2019-04-21T23:37:21.421Z,15.30
2019-04-21T23:39:47.907Z,15.27
2019-04-21T23:42:28.551Z,15.22
2019-04-21T23:44:55.199Z,15.17
2019-04-21T23:47:34.542Z,15.15
2019-04-21T23:50:01.394Z,15.14
2019-04-21T23:52:25.630Z,15.11
2019-04-21T23:54:55.678Z,15.14
2019-04-21T23:57:32.377Z,15.17
2019-04-21T23:59:58.889Z,15.19
